sensor_id;sensor_type;location;lat;lon;timestamp;temperature;humidity
22192;DHT22;11261;52.456;10.850;2022-11-20T00:01:10;0.60;99.90
22192;DHT22;11261;52.456;10.850;2022-11-20T00:03:39;0.50;99.90
22192;DHT22;11261;52.456;10.850;2022-11-20T00:06:09;0.50;99.90
22192;DHT22;11261;52.456;10.850;2022-11-20T00:08:38;0.40;99.90
22192;DHT22;11261;52.456;10.850;2022-11-20T00:11:10;0.40;99.90
22192;DHT22;11261;52.456;10.850;2022-11-20T00:13:42;0.40;99.90
22192;DHT22;11261;52.456;10.850;2022-11-20T00:16:12;0.50;99.90
22192;DHT22;11261;52.456;10.850;2022-11-20T00:18:40;0.40;99.90
22192;DHT22;11261;52.456;10.850;2022-11-20T00:21:12;0.40;99.90
22192;DHT22;11261;52.456;10.850;2022-11-20T00:23:41;0.50;99.90
22192;DHT22;11261;52.456;10.850;2022-11-20T00:26:12;0.40;99.90
22192;DHT22;11261;52.456;10.850;2022-11-20T00:28:40;0.50;99.90
22192;DHT22;11261;52.456;10.850;2022-11-20T00:31:10;0.70;99.90
22192;DHT22;11261;52.456;10.850;2022-11-20T00:33:39;0.60;99.90
22192;DHT22;11261;52.456;10.850;2022-11-20T00:36:09;0.60;99.90
22192;DHT22;11261;52.456;10.850;2022-11-20T00:38:37;0.60;99.90
22192;DHT22;11261;52.456;10.850;2022-11-20T00:41:08;0.50;99.90
22192;DHT22;11261;52.456;10.850;2022-11-20T00:43:37;0.50;99.90
22192;DHT22;11261;52.456;10.850;2022-11-20T00:46:08;0.60;99.90
22192;DHT22;11261;52.456;10.850;2022-11-20T00:48:36;0.50;99.90
22192;DHT22;11261;52.456;10.850;2022-11-20T00:51:04;0.40;99.90
22192;DHT22;11261;52.456;10.850;2022-11-20T00:53:33;0.50;99.90
22192;DHT22;11261;52.456;10.850;2022-11-20T00:56:02;0.50;99.90
22192;DHT22;11261;52.456;10.850;2022-11-20T00:58:33;0.40;99.90
22192;DHT22;11261;52.456;10.850;2022-11-20T01:01:04;0.40;99.90
22192;DHT22;11261;52.456;10.850;2022-11-20T01:03:33;0.40;99.90
22192;DHT22;11261;52.456;10.850;2022-11-20T01:06:02;0.50;99.90
22192;DHT22;11261;52.456;10.850;2022-11-20T01:08:31;0.60;99.90
22192;DHT22;11261;52.456;10.850;2022-11-20T01:11:00;0.50;99.90
22192;DHT22;11261;52.456;10.850;2022-11-20T01:13:29;0.60;99.90
22192;DHT22;11261;52.456;10.850;2022-11-20T01:16:11;0.60;99.90
22192;DHT22;11261;52.456;10.850;2022-11-20T01:18:41;0.50;99.90
22192;DHT22;11261;52.456;10.850;2022-11-20T01:21:12;0.50;99.90
22192;DHT22;11261;52.456;10.850;2022-11-20T01:23:41;0.40;99.90
22192;DHT22;11261;52.456;10.850;2022-11-20T01:26:11;0.50;99.90
22192;DHT22;11261;52.456;10.850;2022-11-20T01:28:40;0.50;99.90
22192;DHT22;11261;52.456;10.850;2022-11-20T01:31:14;0.50;99.90
22192;DHT22;11261;52.456;10.850;2022-11-20T01:33:44;0.50;99.90
22192;DHT22;11261;52.456;10.850;2022-11-20T01:36:14;0.50;99.90
22192;DHT22;11261;52.456;10.850;2022-11-20T01:38:43;0.40;99.90
22192;DHT22;11261;52.456;10.850;2022-11-20T01:41:12;0.50;99.90
22192;DHT22;11261;52.456;10.850;2022-11-20T01:44:03;0.40;99.90
22192;DHT22;11261;52.456;10.850;2022-11-20T01:46:32;0.60;99.90
22192;DHT22;11261;52.456;10.850;2022-11-20T01:49:04;0.60;99.90
22192;DHT22;11261;52.456;10.850;2022-11-20T01:51:39;0.60;99.90
22192;DHT22;11261;52.456;10.850;2022-11-20T01:54:11;0.50;99.90
22192;DHT22;11261;52.456;10.850;2022-11-20T01:56:44;0.50;99.90
22192;DHT22;11261;52.456;10.850;2022-11-20T01:59:14;0.50;99.90
22192;DHT22;11261;52.456;10.850;2022-11-20T02:01:45;0.50;99.90
22192;DHT22;11261;52.456;10.850;2022-11-20T02:04:15;0.50;99.90
22192;DHT22;11261;52.456;10.850;2022-11-20T02:06:47;0.60;99.90
22192;DHT22;11261;52.456;10.850;2022-11-20T02:09:16;0.60;99.90
22192;DHT22;11261;52.456;10.850;2022-11-20T02:11:45;0.60;99.90
22192;DHT22;11261;52.456;10.850;2022-11-20T02:14:14;0.70;99.90
22192;DHT22;11261;52.456;10.850;2022-11-20T02:16:46;0.60;99.90
22192;DHT22;11261;52.456;10.850;2022-11-20T02:19:22;0.60;99.90
22192;DHT22;11261;52.456;10.850;2022-11-20T02:21:57;0.70;99.90
22192;DHT22;11261;52.456;10.850;2022-11-20T02:24:28;0.70;99.90
22192;DHT22;11261;52.456;10.850;2022-11-20T02:27:00;0.60;99.90
22192;DHT22;11261;52.456;10.850;2022-11-20T02:29:33;0.60;99.90
22192;DHT22;11261;52.456;10.850;2022-11-20T02:32:03;0.60;99.90
22192;DHT22;11261;52.456;10.850;2022-11-20T02:34:32;0.60;99.90
22192;DHT22;11261;52.456;10.850;2022-11-20T02:37:00;0.50;99.90
22192;DHT22;11261;52.456;10.850;2022-11-20T02:39:29;0.50;99.90
22192;DHT22;11261;52.456;10.850;2022-11-20T02:41:58;0.60;99.90
22192;DHT22;11261;52.456;10.850;2022-11-20T02:44:28;0.60;99.90
22192;DHT22;11261;52.456;10.850;2022-11-20T02:46:57;0.60;99.90
22192;DHT22;11261;52.456;10.850;2022-11-20T02:49:25;0.60;99.90
22192;DHT22;11261;52.456;10.850;2022-11-20T02:51:54;0.60;99.90
22192;DHT22;11261;52.456;10.850;2022-11-20T02:54:22;0.50;99.90
22192;DHT22;11261;52.456;10.850;2022-11-20T02:56:52;0.40;99.90
22192;DHT22;11261;52.456;10.850;2022-11-20T02:59:20;0.50;99.90
22192;DHT22;11261;52.456;10.850;2022-11-20T03:01:49;0.50;99.90
22192;DHT22;11261;52.456;10.850;2022-11-20T03:04:17;0.50;99.90
22192;DHT22;11261;52.456;10.850;2022-11-20T03:06:45;0.40;99.90
22192;DHT22;11261;52.456;10.850;2022-11-20T03:09:14;0.50;99.90
22192;DHT22;11261;52.456;10.850;2022-11-20T03:11:42;0.50;99.90
22192;DHT22;11261;52.456;10.850;2022-11-20T03:14:12;0.60;99.90
22192;DHT22;11261;52.456;10.850;2022-11-20T03:16:40;0.50;99.90
22192;DHT22;11261;52.456;10.850;2022-11-20T03:19:08;0.50;99.90
22192;DHT22;11261;52.456;10.850;2022-11-20T03:21:36;0.40;99.90
22192;DHT22;11261;52.456;10.850;2022-11-20T03:24:05;0.40;99.90
22192;DHT22;11261;52.456;10.850;2022-11-20T03:26:34;0.40;99.90
22192;DHT22;11261;52.456;10.850;2022-11-20T03:29:04;0.40;99.90
22192;DHT22;11261;52.456;10.850;2022-11-20T03:31:34;0.40;99.90
22192;DHT22;11261;52.456;10.850;2022-11-20T03:34:04;0.50;99.90
22192;DHT22;11261;52.456;10.850;2022-11-20T03:36:32;0.50;99.90
22192;DHT22;11261;52.456;10.850;2022-11-20T03:39:00;0.50;99.90
22192;DHT22;11261;52.456;10.850;2022-11-20T03:41:30;0.50;99.90
22192;DHT22;11261;52.456;10.850;2022-11-20T03:44:00;0.40;99.90
22192;DHT22;11261;52.456;10.850;2022-11-20T03:46:29;0.50;99.90
22192;DHT22;11261;52.456;10.850;2022-11-20T03:48:58;0.50;99.90
22192;DHT22;11261;52.456;10.850;2022-11-20T03:51:28;0.50;99.90
22192;DHT22;11261;52.456;10.850;2022-11-20T03:53:58;0.40;99.90
22192;DHT22;11261;52.456;10.850;2022-11-20T03:56:27;0.50;99.90
22192;DHT22;11261;52.456;10.850;2022-11-20T03:58:56;0.50;99.90
22192;DHT22;11261;52.456;10.850;2022-11-20T04:01:26;0.60;99.90
22192;DHT22;11261;52.456;10.850;2022-11-20T04:03:57;0.70;99.90
22192;DHT22;11261;52.456;10.850;2022-11-20T04:06:28;0.60;99.90
22192;DHT22;11261;52.456;10.850;2022-11-20T04:08:57;0.60;99.90
22192;DHT22;11261;52.456;10.850;2022-11-20T04:11:26;0.60;99.90
22192;DHT22;11261;52.456;10.850;2022-11-20T04:13:57;0.50;99.90
22192;DHT22;11261;52.456;10.850;2022-11-20T04:16:26;0.60;99.90
22192;DHT22;11261;52.456;10.850;2022-11-20T04:18:56;0.70;99.90
22192;DHT22;11261;52.456;10.850;2022-11-20T04:21:26;0.70;99.90
22192;DHT22;11261;52.456;10.850;2022-11-20T04:23:55;0.60;99.90
22192;DHT22;11261;52.456;10.850;2022-11-20T04:26:25;0.60;99.90
22192;DHT22;11261;52.456;10.850;2022-11-20T04:28:54;0.50;99.90
22192;DHT22;11261;52.456;10.850;2022-11-20T04:31:24;0.50;99.90
22192;DHT22;11261;52.456;10.850;2022-11-20T04:33:53;0.60;99.90
22192;DHT22;11261;52.456;10.850;2022-11-20T04:36:23;0.70;99.90
22192;DHT22;11261;52.456;10.850;2022-11-20T04:38:53;0.70;99.90
22192;DHT22;11261;52.456;10.850;2022-11-20T04:41:24;0.70;99.90
22192;DHT22;11261;52.456;10.850;2022-11-20T04:43:54;0.70;99.90
22192;DHT22;11261;52.456;10.850;2022-11-20T04:46:27;0.70;99.90
22192;DHT22;11261;52.456;10.850;2022-11-20T04:48:55;0.70;99.90
22192;DHT22;11261;52.456;10.850;2022-11-20T04:51:23;0.80;99.90
22192;DHT22;11261;52.456;10.850;2022-11-20T04:53:53;0.80;99.90
22192;DHT22;11261;52.456;10.850;2022-11-20T04:56:21;0.60;99.90
22192;DHT22;11261;52.456;10.850;2022-11-20T04:58:50;0.60;99.90
22192;DHT22;11261;52.456;10.850;2022-11-20T05:01:20;0.50;99.90
22192;DHT22;11261;52.456;10.850;2022-11-20T05:03:49;0.50;99.90
22192;DHT22;11261;52.456;10.850;2022-11-20T05:06:19;0.60;99.90
22192;DHT22;11261;52.456;10.850;2022-11-20T05:08:48;0.60;99.90
22192;DHT22;11261;52.456;10.850;2022-11-20T05:11:19;0.70;99.90
22192;DHT22;11261;52.456;10.850;2022-11-20T05:13:49;0.60;99.90
22192;DHT22;11261;52.456;10.850;2022-11-20T05:16:19;0.50;99.90
22192;DHT22;11261;52.456;10.850;2022-11-20T05:18:48;0.60;99.90
22192;DHT22;11261;52.456;10.850;2022-11-20T05:21:16;0.60;99.90
22192;DHT22;11261;52.456;10.850;2022-11-20T05:23:45;0.60;99.90
22192;DHT22;11261;52.456;10.850;2022-11-20T05:26:16;0.70;99.90
22192;DHT22;11261;52.456;10.850;2022-11-20T05:28:45;0.70;99.90
22192;DHT22;11261;52.456;10.850;2022-11-20T05:31:15;0.60;99.90
22192;DHT22;11261;52.456;10.850;2022-11-20T05:33:52;0.70;99.90
22192;DHT22;11261;52.456;10.850;2022-11-20T05:36:20;0.60;99.90
22192;DHT22;11261;52.456;10.850;2022-11-20T05:38:48;0.70;99.90
22192;DHT22;11261;52.456;10.850;2022-11-20T05:41:20;0.60;99.90
22192;DHT22;11261;52.456;10.850;2022-11-20T05:43:50;0.60;99.90
22192;DHT22;11261;52.456;10.850;2022-11-20T05:46:20;0.60;99.90
22192;DHT22;11261;52.456;10.850;2022-11-20T05:48:55;0.60;99.90
22192;DHT22;11261;52.456;10.850;2022-11-20T05:51:23;0.80;99.90
22192;DHT22;11261;52.456;10.850;2022-11-20T05:53:52;0.80;99.90
22192;DHT22;11261;52.456;10.850;2022-11-20T05:56:21;0.70;99.90
22192;DHT22;11261;52.456;10.850;2022-11-20T05:58:51;0.70;99.90
22192;DHT22;11261;52.456;10.850;2022-11-20T06:01:21;0.60;99.90
22192;DHT22;11261;52.456;10.850;2022-11-20T06:03:50;0.70;99.90
22192;DHT22;11261;52.456;10.850;2022-11-20T06:06:19;0.70;99.90
22192;DHT22;11261;52.456;10.850;2022-11-20T06:08:48;0.60;99.90
22192;DHT22;11261;52.456;10.850;2022-11-20T06:11:16;0.70;99.90
22192;DHT22;11261;52.456;10.850;2022-11-20T06:13:45;0.60;99.90
22192;DHT22;11261;52.456;10.850;2022-11-20T06:16:17;0.60;99.90
22192;DHT22;11261;52.456;10.850;2022-11-20T06:18:46;0.60;99.90
22192;DHT22;11261;52.456;10.850;2022-11-20T06:21:16;0.60;99.90
22192;DHT22;11261;52.456;10.850;2022-11-20T06:23:45;0.50;99.90
22192;DHT22;11261;52.456;10.850;2022-11-20T06:26:15;0.60;99.90
22192;DHT22;11261;52.456;10.850;2022-11-20T06:28:44;0.50;99.90
22192;DHT22;11261;52.456;10.850;2022-11-20T06:31:15;0.50;99.90
22192;DHT22;11261;52.456;10.850;2022-11-20T06:33:44;0.60;99.90
22192;DHT22;11261;52.456;10.850;2022-11-20T06:36:14;0.50;99.90
22192;DHT22;11261;52.456;10.850;2022-11-20T06:38:42;0.50;99.90
22192;DHT22;11261;52.456;10.850;2022-11-20T06:41:12;0.60;99.90
22192;DHT22;11261;52.456;10.850;2022-11-20T06:43:41;0.50;99.90
22192;DHT22;11261;52.456;10.850;2022-11-20T06:46:10;0.50;99.90
22192;DHT22;11261;52.456;10.850;2022-11-20T06:48:40;0.50;99.90
22192;DHT22;11261;52.456;10.850;2022-11-20T06:51:09;0.60;99.90
22192;DHT22;11261;52.456;10.850;2022-11-20T06:53:37;0.50;99.90
22192;DHT22;11261;52.456;10.850;2022-11-20T06:56:06;0.50;99.90
22192;DHT22;11261;52.456;10.850;2022-11-20T06:58:35;0.50;99.90
22192;DHT22;11261;52.456;10.850;2022-11-20T07:01:05;0.40;99.90
22192;DHT22;11261;52.456;10.850;2022-11-20T07:03:34;0.40;99.90
22192;DHT22;11261;52.456;10.850;2022-11-20T07:06:04;0.40;99.90
22192;DHT22;11261;52.456;10.850;2022-11-20T07:08:33;0.50;99.90
22192;DHT22;11261;52.456;10.850;2022-11-20T07:11:03;0.50;99.90
22192;DHT22;11261;52.456;10.850;2022-11-20T07:13:32;0.40;99.90
22192;DHT22;11261;52.456;10.850;2022-11-20T07:16:02;0.40;99.90
22192;DHT22;11261;52.456;10.850;2022-11-20T07:18:31;0.30;99.90
22192;DHT22;11261;52.456;10.850;2022-11-20T07:21:00;0.30;99.90
22192;DHT22;11261;52.456;10.850;2022-11-20T07:23:30;0.40;99.90
22192;DHT22;11261;52.456;10.850;2022-11-20T07:25:58;0.40;99.90
22192;DHT22;11261;52.456;10.850;2022-11-20T07:28:29;0.40;99.90
22192;DHT22;11261;52.456;10.850;2022-11-20T07:30:58;0.50;99.90
22192;DHT22;11261;52.456;10.850;2022-11-20T07:33:26;0.50;99.90
22192;DHT22;11261;52.456;10.850;2022-11-20T07:35:54;0.50;99.90
22192;DHT22;11261;52.456;10.850;2022-11-20T07:38:22;0.60;99.90
22192;DHT22;11261;52.456;10.850;2022-11-20T07:40:55;0.60;99.90
22192;DHT22;11261;52.456;10.850;2022-11-20T07:43:25;0.50;99.90
22192;DHT22;11261;52.456;10.850;2022-11-20T07:45:55;0.50;99.90
22192;DHT22;11261;52.456;10.850;2022-11-20T07:48:23;0.50;99.90
22192;DHT22;11261;52.456;10.850;2022-11-20T07:50:53;0.60;99.90
22192;DHT22;11261;52.456;10.850;2022-11-20T07:53:22;0.60;99.90
22192;DHT22;11261;52.456;10.850;2022-11-20T07:55:50;0.60;99.90
22192;DHT22;11261;52.456;10.850;2022-11-20T07:58:21;0.60;99.90
22192;DHT22;11261;52.456;10.850;2022-11-20T08:00:49;0.60;99.90
22192;DHT22;11261;52.456;10.850;2022-11-20T08:03:17;0.50;99.90
22192;DHT22;11261;52.456;10.850;2022-11-20T08:05:50;0.50;99.90
22192;DHT22;11261;52.456;10.850;2022-11-20T08:08:18;0.60;99.90
22192;DHT22;11261;52.456;10.850;2022-11-20T08:10:47;0.60;99.90
22192;DHT22;11261;52.456;10.850;2022-11-20T08:13:15;0.60;99.90
22192;DHT22;11261;52.456;10.850;2022-11-20T08:16:02;0.60;99.90
22192;DHT22;11261;52.456;10.850;2022-11-20T08:18:30;0.50;99.90
22192;DHT22;11261;52.456;10.850;2022-11-20T08:21:02;0.70;99.90
22192;DHT22;11261;52.456;10.850;2022-11-20T08:23:30;0.60;99.90
22192;DHT22;11261;52.456;10.850;2022-11-20T08:25:58;0.60;99.90
22192;DHT22;11261;52.456;10.850;2022-11-20T08:28:26;0.60;99.90
22192;DHT22;11261;52.456;10.850;2022-11-20T08:30:58;0.70;99.90
22192;DHT22;11261;52.456;10.850;2022-11-20T08:33:28;0.80;99.90
22192;DHT22;11261;52.456;10.850;2022-11-20T08:36:00;0.70;99.90
22192;DHT22;11261;52.456;10.850;2022-11-20T08:38:28;0.70;99.90
22192;DHT22;11261;52.456;10.850;2022-11-20T08:40:57;0.60;99.90
22192;DHT22;11261;52.456;10.850;2022-11-20T08:43:43;0.50;99.90
22192;DHT22;11261;52.456;10.850;2022-11-20T08:46:11;0.60;99.90
22192;DHT22;11261;52.456;10.850;2022-11-20T08:48:41;0.70;99.90
22192;DHT22;11261;52.456;10.850;2022-11-20T08:51:09;0.80;99.90
22192;DHT22;11261;52.456;10.850;2022-11-20T08:53:38;0.80;99.90
22192;DHT22;11261;52.456;10.850;2022-11-20T08:56:07;0.70;99.90
22192;DHT22;11261;52.456;10.850;2022-11-20T08:58:36;0.80;99.90
22192;DHT22;11261;52.456;10.850;2022-11-20T09:01:25;0.80;99.90
22192;DHT22;11261;52.456;10.850;2022-11-20T09:03:56;0.90;99.90
22192;DHT22;11261;52.456;10.850;2022-11-20T09:06:24;0.90;99.90
22192;DHT22;11261;52.456;10.850;2022-11-20T09:08:53;1.00;99.90
22192;DHT22;11261;52.456;10.850;2022-11-20T09:11:21;1.00;99.90
22192;DHT22;11261;52.456;10.850;2022-11-20T09:13:49;1.00;99.90
22192;DHT22;11261;52.456;10.850;2022-11-20T09:16:17;1.00;99.90
22192;DHT22;11261;52.456;10.850;2022-11-20T09:18:45;1.00;99.90
22192;DHT22;11261;52.456;10.850;2022-11-20T09:21:34;1.10;99.90
22192;DHT22;11261;52.456;10.850;2022-11-20T09:24:03;1.20;99.90
22192;DHT22;11261;52.456;10.850;2022-11-20T09:26:32;1.20;99.90
22192;DHT22;11261;52.456;10.850;2022-11-20T09:29:00;1.00;99.90
22192;DHT22;11261;52.456;10.850;2022-11-20T09:31:28;1.10;99.90
22192;DHT22;11261;52.456;10.850;2022-11-20T09:33:56;1.20;99.90
22192;DHT22;11261;52.456;10.850;2022-11-20T09:36:24;1.10;99.90
22192;DHT22;11261;52.456;10.850;2022-11-20T09:38:54;1.20;99.90
22192;DHT22;11261;52.456;10.850;2022-11-20T09:41:47;1.20;99.90
22192;DHT22;11261;52.456;10.850;2022-11-20T09:44:31;1.20;99.90
22192;DHT22;11261;52.456;10.850;2022-11-20T09:47:09;1.40;99.90
22192;DHT22;11261;52.456;10.850;2022-11-20T09:49:59;1.40;99.90
22192;DHT22;11261;52.456;10.850;2022-11-20T09:52:41;1.60;99.90
22192;DHT22;11261;52.456;10.850;2022-11-20T09:55:16;1.50;99.90
22192;DHT22;11261;52.456;10.850;2022-11-20T09:57:46;1.60;99.90
22192;DHT22;11261;52.456;10.850;2022-11-20T10:00:16;1.60;99.90
22192;DHT22;11261;52.456;10.850;2022-11-20T10:02:50;1.80;99.90
22192;DHT22;11261;52.456;10.850;2022-11-20T10:05:24;1.70;99.90
22192;DHT22;11261;52.456;10.850;2022-11-20T10:08:01;1.90;99.90
22192;DHT22;11261;52.456;10.850;2022-11-20T10:10:38;1.80;99.90
22192;DHT22;11261;52.456;10.850;2022-11-20T10:13:21;1.90;99.90
22192;DHT22;11261;52.456;10.850;2022-11-20T10:16:00;1.80;99.90
22192;DHT22;11261;52.456;10.850;2022-11-20T10:18:41;2.00;99.90
22192;DHT22;11261;52.456;10.850;2022-11-20T10:21:17;2.00;99.90
22192;DHT22;11261;52.456;10.850;2022-11-20T10:24:00;1.90;99.90
22192;DHT22;11261;52.456;10.850;2022-11-20T10:26:40;2.00;99.90
22192;DHT22;11261;52.456;10.850;2022-11-20T10:29:13;2.10;99.90
22192;DHT22;11261;52.456;10.850;2022-11-20T10:31:45;2.10;99.90
22192;DHT22;11261;52.456;10.850;2022-11-20T10:34:19;2.20;99.90
22192;DHT22;11261;52.456;10.850;2022-11-20T10:36:52;2.40;99.90
22192;DHT22;11261;52.456;10.850;2022-11-20T10:39:28;2.50;99.90
22192;DHT22;11261;52.456;10.850;2022-11-20T10:41:59;2.50;99.90
22192;DHT22;11261;52.456;10.850;2022-11-20T10:44:29;2.40;99.90
22192;DHT22;11261;52.456;10.850;2022-11-20T10:47:22;2.40;99.90
22192;DHT22;11261;52.456;10.850;2022-11-20T10:49:52;2.60;99.90
22192;DHT22;11261;52.456;10.850;2022-11-20T10:52:25;2.60;99.90
22192;DHT22;11261;52.456;10.850;2022-11-20T10:54:59;2.70;99.90
22192;DHT22;11261;52.456;10.850;2022-11-20T10:57:47;2.70;99.90
22192;DHT22;11261;52.456;10.850;2022-11-20T11:00:17;2.90;99.90
22192;DHT22;11261;52.456;10.850;2022-11-20T11:02:47;2.90;99.90
22192;DHT22;11261;52.456;10.850;2022-11-20T11:05:24;3.00;99.90
22192;DHT22;11261;52.456;10.850;2022-11-20T11:07:55;3.00;99.90
22192;DHT22;11261;52.456;10.850;2022-11-20T11:10:28;3.30;99.90
22192;DHT22;11261;52.456;10.850;2022-11-20T11:12:59;3.40;99.90
22192;DHT22;11261;52.456;10.850;2022-11-20T11:15:30;3.30;99.90
22192;DHT22;11261;52.456;10.850;2022-11-20T11:17:58;3.20;99.90
22192;DHT22;11261;52.456;10.850;2022-11-20T11:20:26;3.30;99.90
22192;DHT22;11261;52.456;10.850;2022-11-20T11:22:56;3.20;99.90
22192;DHT22;11261;52.456;10.850;2022-11-20T11:25:27;3.60;99.90
22192;DHT22;11261;52.456;10.850;2022-11-20T11:27:57;3.20;99.90
22192;DHT22;11261;52.456;10.850;2022-11-20T11:30:29;3.60;99.90
22192;DHT22;11261;52.456;10.850;2022-11-20T11:33:05;3.70;99.90
22192;DHT22;11261;52.456;10.850;2022-11-20T11:35:43;4.00;99.90
22192;DHT22;11261;52.456;10.850;2022-11-20T11:38:21;4.00;99.90
22192;DHT22;11261;52.456;10.850;2022-11-20T11:40:53;4.10;99.90
22192;DHT22;11261;52.456;10.850;2022-11-20T11:43:25;4.10;99.90
22192;DHT22;11261;52.456;10.850;2022-11-20T11:46:31;4.00;99.90
22192;DHT22;11261;52.456;10.850;2022-11-20T11:49:00;4.20;99.90
22192;DHT22;11261;52.456;10.850;2022-11-20T11:51:41;4.20;99.90
22192;DHT22;11261;52.456;10.850;2022-11-20T11:54:16;4.10;99.90
22192;DHT22;11261;52.456;10.850;2022-11-20T11:56:46;4.10;99.90
22192;DHT22;11261;52.456;10.850;2022-11-20T11:59:21;4.10;99.90
22192;DHT22;11261;52.456;10.850;2022-11-20T12:01:54;3.90;99.90
22192;DHT22;11261;52.456;10.850;2022-11-20T12:04:35;3.90;99.90
22192;DHT22;11261;52.456;10.850;2022-11-20T12:07:11;3.70;99.90
22192;DHT22;11261;52.456;10.850;2022-11-20T12:10:00;3.80;99.90
22192;DHT22;11261;52.456;10.850;2022-11-20T12:12:32;3.70;99.90
22192;DHT22;11261;52.456;10.850;2022-11-20T12:15:06;3.70;99.90
22192;DHT22;11261;52.456;10.850;2022-11-20T12:17:39;3.90;99.90
22192;DHT22;11261;52.456;10.850;2022-11-20T12:20:11;3.70;99.90
22192;DHT22;11261;52.456;10.850;2022-11-20T12:22:46;3.80;99.90
22192;DHT22;11261;52.456;10.850;2022-11-20T12:25:21;3.60;99.90
22192;DHT22;11261;52.456;10.850;2022-11-20T12:28:07;3.60;99.90
22192;DHT22;11261;52.456;10.850;2022-11-20T12:30:44;3.50;99.90
22192;DHT22;11261;52.456;10.850;2022-11-20T12:33:32;3.50;99.90
22192;DHT22;11261;52.456;10.850;2022-11-20T12:36:13;3.30;99.90
22192;DHT22;11261;52.456;10.850;2022-11-20T12:39:07;3.50;99.90
22192;DHT22;11261;52.456;10.850;2022-11-20T12:41:53;3.30;99.90
22192;DHT22;11261;52.456;10.850;2022-11-20T12:44:59;3.10;99.90
22192;DHT22;11261;52.456;10.850;2022-11-20T12:47:51;3.30;99.90
22192;DHT22;11261;52.456;10.850;2022-11-20T12:50:32;3.20;99.90
22192;DHT22;11261;52.456;10.850;2022-11-20T12:53:30;3.30;99.90
22192;DHT22;11261;52.456;10.850;2022-11-20T12:56:04;3.20;99.90
22192;DHT22;11261;52.456;10.850;2022-11-20T12:58:41;3.40;99.90
22192;DHT22;11261;52.456;10.850;2022-11-20T13:01:25;3.30;99.90
22192;DHT22;11261;52.456;10.850;2022-11-20T13:04:19;3.00;99.90
22192;DHT22;11261;52.456;10.850;2022-11-20T13:06:54;2.90;99.90
22192;DHT22;11261;52.456;10.850;2022-11-20T13:09:23;3.00;99.90
22192;DHT22;11261;52.456;10.850;2022-11-20T13:11:59;3.10;99.90
22192;DHT22;11261;52.456;10.850;2022-11-20T13:14:34;3.10;99.90
22192;DHT22;11261;52.456;10.850;2022-11-20T13:17:09;2.90;99.90
22192;DHT22;11261;52.456;10.850;2022-11-20T13:19:39;2.80;99.90
22192;DHT22;11261;52.456;10.850;2022-11-20T13:22:09;3.00;99.90
22192;DHT22;11261;52.456;10.850;2022-11-20T13:24:37;3.00;99.90
22192;DHT22;11261;52.456;10.850;2022-11-20T13:27:20;3.10;99.90
22192;DHT22;11261;52.456;10.850;2022-11-20T13:30:14;3.20;99.90
22192;DHT22;11261;52.456;10.850;2022-11-20T13:32:52;3.10;99.90
22192;DHT22;11261;52.456;10.850;2022-11-20T13:35:29;3.00;99.90
22192;DHT22;11261;52.456;10.850;2022-11-20T13:38:05;3.10;99.90
22192;DHT22;11261;52.456;10.850;2022-11-20T13:40:36;3.00;99.90
22192;DHT22;11261;52.456;10.850;2022-11-20T13:43:11;2.90;99.90
22192;DHT22;11261;52.456;10.850;2022-11-20T13:45:54;3.00;99.90
22192;DHT22;11261;52.456;10.850;2022-11-20T13:48:24;2.80;99.90
22192;DHT22;11261;52.456;10.850;2022-11-20T13:51:11;2.90;99.90
22192;DHT22;11261;52.456;10.850;2022-11-20T13:56:48;3.00;99.90
22192;DHT22;11261;52.456;10.850;2022-11-20T13:59:33;2.90;99.90
22192;DHT22;11261;52.456;10.850;2022-11-20T14:02:10;2.80;99.90
22192;DHT22;11261;52.456;10.850;2022-11-20T14:04:46;2.80;99.90
22192;DHT22;11261;52.456;10.850;2022-11-20T14:07:14;2.80;99.90
22192;DHT22;11261;52.456;10.850;2022-11-20T14:09:51;3.00;99.90
22192;DHT22;11261;52.456;10.850;2022-11-20T14:12:27;2.80;99.90
22192;DHT22;11261;52.456;10.850;2022-11-20T14:14:56;2.90;99.90
22192;DHT22;11261;52.456;10.850;2022-11-20T14:17:30;3.10;99.90
22192;DHT22;11261;52.456;10.850;2022-11-20T14:20:01;2.90;99.90
22192;DHT22;11261;52.456;10.850;2022-11-20T14:22:30;2.70;99.90
22192;DHT22;11261;52.456;10.850;2022-11-20T14:25:05;2.80;99.90
22192;DHT22;11261;52.456;10.850;2022-11-20T14:27:36;2.80;99.90
22192;DHT22;11261;52.456;10.850;2022-11-20T14:30:05;2.70;99.90
22192;DHT22;11261;52.456;10.850;2022-11-20T14:32:35;2.60;99.90
22192;DHT22;11261;52.456;10.850;2022-11-20T14:35:08;2.60;99.90
22192;DHT22;11261;52.456;10.850;2022-11-20T14:37:38;2.70;99.90
22192;DHT22;11261;52.456;10.850;2022-11-20T14:43:00;2.60;99.90
22192;DHT22;11261;52.456;10.850;2022-11-20T14:45:28;2.70;99.90
22192;DHT22;11261;52.456;10.850;2022-11-20T14:47:57;2.70;99.90
22192;DHT22;11261;52.456;10.850;2022-11-20T14:50:28;2.70;99.90
22192;DHT22;11261;52.456;10.850;2022-11-20T14:52:58;2.60;99.90
22192;DHT22;11261;52.456;10.850;2022-11-20T14:55:28;2.40;99.90
22192;DHT22;11261;52.456;10.850;2022-11-20T14:57:58;2.30;99.90
22192;DHT22;11261;52.456;10.850;2022-11-20T15:00:28;2.20;99.90
22192;DHT22;11261;52.456;10.850;2022-11-20T15:02:57;2.30;99.90
22192;DHT22;11261;52.456;10.850;2022-11-20T15:05:44;2.30;99.90
22192;DHT22;11261;52.456;10.850;2022-11-20T15:08:13;2.50;99.90
22192;DHT22;11261;52.456;10.850;2022-11-20T15:10:46;2.40;99.90
22192;DHT22;11261;52.456;10.850;2022-11-20T15:13:18;2.30;99.90
22192;DHT22;11261;52.456;10.850;2022-11-20T15:15:51;2.20;99.90
22192;DHT22;11261;52.456;10.850;2022-11-20T15:18:22;2.00;99.90
22192;DHT22;11261;52.456;10.850;2022-11-20T15:20:51;2.00;99.90
22192;DHT22;11261;52.456;10.850;2022-11-20T15:23:21;2.10;99.90
22192;DHT22;11261;52.456;10.850;2022-11-20T15:25:49;2.20;99.90
22192;DHT22;11261;52.456;10.850;2022-11-20T15:28:20;2.20;99.90
22192;DHT22;11261;52.456;10.850;2022-11-20T15:30:51;2.00;99.90
22192;DHT22;11261;52.456;10.850;2022-11-20T15:33:19;1.90;99.90
22192;DHT22;11261;52.456;10.850;2022-11-20T15:35:47;1.90;99.90
22192;DHT22;11261;52.456;10.850;2022-11-20T15:38:15;2.00;99.90
22192;DHT22;11261;52.456;10.850;2022-11-20T15:40:43;2.00;99.90
22192;DHT22;11261;52.456;10.850;2022-11-20T15:43:12;1.70;99.90
22192;DHT22;11261;52.456;10.850;2022-11-20T15:45:42;1.70;99.90
22192;DHT22;11261;52.456;10.850;2022-11-20T15:48:16;1.90;99.90
22192;DHT22;11261;52.456;10.850;2022-11-20T15:50:50;1.90;99.90
22192;DHT22;11261;52.456;10.850;2022-11-20T15:53:20;1.90;99.90
22192;DHT22;11261;52.456;10.850;2022-11-20T15:55:48;2.00;99.90
22192;DHT22;11261;52.456;10.850;2022-11-20T15:58:16;2.00;99.90
22192;DHT22;11261;52.456;10.850;2022-11-20T16:00:45;1.90;99.90
22192;DHT22;11261;52.456;10.850;2022-11-20T16:03:16;1.90;99.90
22192;DHT22;11261;52.456;10.850;2022-11-20T16:05:45;1.80;99.90